Observation data for Dora on 05/27/2019      Previous  Date  Next       Current Mesonet Observations  Soil Data  Daily Summary Page  Observations in Plain Language
KDR1 270500Z 18016KT 20/16 A2994 RMK A01 T01960163  RH  085%=      5-min Rain = 0
KDR1 270505Z 18016KT 20/16 A2994 RMK A01 T01960162  RH  085%=      5-min Rain = 0
KDR1 270510Z 19017KT 20/16 A2994 RMK A01 T01960162  RH  085%=      5-min Rain = 0
KDR1 270515Z 19016G21KT 20/16 A2994 RMK A01 T01960162  RH  085%=      5-min Rain = 0
KDR1 270520Z 18015KT 19/16 A2993 RMK A01 T01940162  RH  086%=      5-min Rain = 0
KDR1 270525Z 18015KT 19/16 A2993 RMK A01 T01920161  RH  086%=      5-min Rain = 0
KDR1 270530Z 18015KT 19/16 A2993 RMK A01 T01910161  RH  087%=      5-min Rain = 0
KDR1 270535Z 18016KT 19/16 A2993 RMK A01 T01910161  RH  087%=      5-min Rain = 0
KDR1 270540Z 18016KT 19/16 A2993 RMK A01 T01910161  RH  087%=      5-min Rain = 0
KDR1 270545Z 18014KT 19/16 A2993 RMK A01 T01890161  RH  088%=      5-min Rain = 0
KDR1 270550Z 18015KT 19/16 A2993 RMK A01 T01880161  RH  088%=      5-min Rain = 0
KDR1 270555Z 18014KT 19/16 A2993 RMK A01 T01890161  RH  088%=      5-min Rain = 0
KDR1 270600Z 19014KT 19/16 A2992 RMK A01 T01880160  RH  088%=      5-min Rain = 0
KDR1 270605Z 19014KT 19/16 A2992 RMK A01 T01870160  RH  088%=      5-min Rain = 0
KDR1 270610Z 19013KT 19/16 A2992 RMK A01 T01870160  RH  088%=      5-min Rain = 0
KDR1 270615Z 19013KT 19/16 A2992 RMK A01 T01860160  RH  089%=      5-min Rain = 0
KDR1 270620Z 18013KT 19/16 A2992 RMK A01 T01850159  RH  089%=      5-min Rain = 0
KDR1 270625Z 18013KT 18/16 A2992 RMK A01 T01840158  RH  089%=      5-min Rain = 0
KDR1 270630Z 19013KT 18/16 A2992 RMK A01 T01840158  RH  089%=      5-min Rain = 0
KDR1 270635Z 19014KT 18/16 A2992 RMK A01 T01830158  RH  089%=      5-min Rain = 0
KDR1 270640Z 19014KT 18/16 A2992 RMK A01 T01830157  RH  089%=      5-min Rain = 0
KDR1 270645Z 19014KT 18/16 A2992 RMK A01 T01820157  RH  089%=      5-min Rain = 0
KDR1 270650Z 19014KT 18/16 A2992 RMK A01 T01810156  RH  089%=      5-min Rain = 0
KDR1 270655Z 19014KT 18/16 A2991 RMK A01 T01800156  RH  090%=      5-min Rain = 0
KDR1 270700Z 19014G19KT 18/16 A2991 RMK A01 T01800156  RH  090%=      5-min Rain = 0
KDR1 270705Z 19015KT 18/16 A2991 RMK A01 T01810155  RH  089%=      5-min Rain = 0
KDR1 270710Z 19013KT 18/15 A2991 RMK A01 T01790154  RH  089%=      5-min Rain = 0
KDR1 270715Z 19013KT 18/15 A2991 RMK A01 T01790154  RH  089%=      5-min Rain = 0
KDR1 270720Z 20013KT 18/15 A2991 RMK A01 T01790154  RH  089%=      5-min Rain = 0
KDR1 270725Z 20013KT 18/15 A299 RMK A01 T01780153  RH  089%=      5-min Rain = 0
KDR1 270730Z 19012KT 18/15 A299 RMK A01 T01780153  RH  089%=      5-min Rain = 0
KDR1 270735Z 19012KT 18/15 A299 RMK A01 T01760152  RH  090%=      5-min Rain = 0
KDR1 270740Z 19012KT 17/15 A299 RMK A01 T01740151  RH  090%=      5-min Rain = 0
KDR1 270745Z 19012KT 17/15 A2989 RMK A01 T01740151  RH  091%=      5-min Rain = 0
KDR1 270750Z 19013KT 17/15 A2989 RMK A01 T01730151  RH  091%=      5-min Rain = 0
KDR1 270755Z 20013KT 17/15 A2989 RMK A01 T01720150  RH  091%=      5-min Rain = 0
KDR1 270800Z 19013KT 17/15 A2989 RMK A01 T01720150  RH  091%=      5-min Rain = 0
KDR1 270805Z 19013KT 17/15 A2989 RMK A01 T01720149  RH  091%=      5-min Rain = 0
KDR1 270810Z 19012KT 17/15 A2989 RMK A01 T01710149  RH  091%=      5-min Rain = 0
KDR1 270815Z 19012KT 17/15 A2989 RMK A01 T01700148  RH  091%=      5-min Rain = 0
KDR1 270820Z 19012KT 17/15 A2989 RMK A01 T01690148  RH  091%=      5-min Rain = 0
KDR1 270825Z 20012KT 17/15 A2989 RMK A01 T01680147  RH  091%=      5-min Rain = 0
KDR1 270830Z 20012KT 17/15 A2989 RMK A01 T01670147  RH  092%=      5-min Rain = 0
KDR1 270835Z 20011KT 17/15 A2989 RMK A01 T01660146  RH  092%=      5-min Rain = 0
KDR1 270840Z 19011KT 17/15 A2989 RMK A01 T01650146  RH  092%=      5-min Rain = 0
KDR1 270845Z 20012KT 16/15 A2989 RMK A01 T01640145  RH  093%=      5-min Rain = 0
KDR1 270850Z 20012KT 16/15 A2989 RMK A01 T01640145  RH  093%=      5-min Rain = 0
KDR1 270855Z 20013KT 16/15 A2989 RMK A01 T01640145  RH  093%=      5-min Rain = 0
KDR1 270900Z 20012KT 16/15 A2989 RMK A01 T01640145  RH  092%=      5-min Rain = 0
KDR1 270905Z 21012KT 17/15 A2989 RMK A01 T01660146  RH  092%=      5-min Rain = 0
KDR1 270910Z 20011KT 17/14 A2989 RMK A01 T01650144  RH  091%=      5-min Rain = 0
KDR1 270915Z 20012KT 16/14 A2989 RMK A01 T01640144  RH  091%=      5-min Rain = 0
KDR1 270920Z 20011KT 16/14 A2989 RMK A01 T01630143  RH  092%=      5-min Rain = 0
KDR1 270925Z 20010KT 16/14 A2989 RMK A01 T01630143  RH  092%=      5-min Rain = 0
KDR1 270930Z 21010KT 16/14 A2989 RMK A01 T01630142  RH  092%=      5-min Rain = 0
KDR1 270935Z 21010KT 16/14 A2989 RMK A01 T01620142  RH  092%=      5-min Rain = 0
KDR1 270940Z 22009KT 16/14 A2989 RMK A01 T01590140  RH  092%=      5-min Rain = 0
KDR1 270945Z 22009KT 16/14 A2989 RMK A01 T01590140  RH  092%=      5-min Rain = 0
KDR1 270950Z 22010KT 16/14 A2989 RMK A01 T01600140  RH  092%=      5-min Rain = 0
KDR1 270955Z 22010KT 16/14 A299 RMK A01 T01580139  RH  092%=      5-min Rain = 0
KDR1 271000Z 22011KT 16/14 A299 RMK A01 T01600140  RH  091%=      5-min Rain = 0
KDR1 271005Z 22010KT 16/14 A299 RMK A01 T01590138  RH  091%=      5-min Rain = 0
KDR1 271010Z 22010KT 16/14 A299 RMK A01 T01610137  RH  090%=      5-min Rain = 0
KDR1 271015Z 22009KT 16/14 A299 RMK A01 T01600135  RH  088%=      5-min Rain = 0
KDR1 271020Z 22009KT 16/13 A299 RMK A01 T01590133  RH  088%=      5-min Rain = 0.01
KDR1 271025Z 21008KT 16/13 A299 RMK A01 T01590132  RH  087%=      5-min Rain = 0
KDR1 271030Z 21007KT 16/13 A299 RMK A01 T01560130  RH  088%=      5-min Rain = 0
KDR1 271035Z 20008KT 15/13 A2991 RMK A01 T01510128  RH  089%=      5-min Rain = 0
KDR1 271040Z 21008KT 15/13 A2991 RMK A01 T01510128  RH  090%=      5-min Rain = 0
KDR1 271045Z 20007KT 15/13 A2991 RMK A01 T01480126  RH  090%=      5-min Rain = 0
KDR1 271050Z 20007KT 15/13 A2991 RMK A01 T01470127  RH  091%=      5-min Rain = 0
KDR1 271055Z 21008KT 15/13 A2991 RMK A01 T01490128  RH  091%=      5-min Rain = 0
KDR1 271100Z 21009KT 15/13 A2991 RMK A01 T01510126  RH  088%=      5-min Rain = 0
KDR1 271105Z 21009KT 15/12 A2991 RMK A01 T01490124  RH  088%=      5-min Rain = 0
KDR1 271110Z 21009KT 15/12 A2991 RMK A01 T01480123  RH  088%=      5-min Rain = 0
KDR1 271115Z 20009KT 15/12 A2991 RMK A01 T01480122  RH  087%=      5-min Rain = 0
KDR1 271120Z 19009KT 14/12 A2991 RMK A01 T01430120  RH  089%=      5-min Rain = 0
KDR1 271125Z 18008KT 14/12 A2991 RMK A01 T01400120  RH  091%=      5-min Rain = 0
KDR1 271130Z 18009KT 14/12 A2991 RMK A01 T01360117  RH  092%=      5-min Rain = 0
KDR1 271135Z 18009KT 14/12 A2991 RMK A01 T01350118  RH  093%=      5-min Rain = 0
KDR1 271140Z 19010KT 14/12 A2991 RMK A01 T01370120  RH  093%=      5-min Rain = 0
KDR1 271145Z 19011KT 14/12 A2991 RMK A01 T01400122  RH  092%=      5-min Rain = 0
KDR1 271150Z 19011KT 14/12 A2991 RMK A01 T01410120  RH  091%=      5-min Rain = 0
KDR1 271155Z 20011KT 14/12 A2991 RMK A01 T01410121  RH  091%=      5-min Rain = 0
KDR1 271200Z 21011KT 14/12 A2991 RMK A01 T01440122  RH  090%=      5-min Rain = 0
KDR1 271205Z 21010KT 15/12 A2991 RMK A01 T01480122  RH  088%=      5-min Rain = 0
KDR1 271210Z 21009KT 15/12 A2992 RMK A01 T01470121  RH  087%=      5-min Rain = 0
KDR1 271215Z 22009KT 15/12 A2991 RMK A01 T01450119  RH  088%=      5-min Rain = 0
KDR1 271220Z 21011KT 15/12 A2992 RMK A01 T01450118  RH  087%=      5-min Rain = 0
KDR1 271225Z 22010KT 15/12 A2992 RMK A01 T01470117  RH  085%=      5-min Rain = 0
KDR1 271230Z 22011KT 15/12 A2992 RMK A01 T01480115  RH  084%=      5-min Rain = 0
KDR1 271235Z 22012KT 15/11 A2992 RMK A01 T01530112  RH  079%=      5-min Rain = 0
KDR1 271240Z 22013KT 16/11 A2992 RMK A01 T01550109  RH  077%=      5-min Rain = 0
KDR1 271245Z 23013KT 16/11 A2992 RMK A01 T01580108  RH  075%=      5-min Rain = 0
KDR1 271250Z 23013KT 16/11 A2992 RMK A01 T01590108  RH  074%=      5-min Rain = 0
KDR1 271255Z 23011KT 16/11 A2993 RMK A01 T01610109  RH  074%=      5-min Rain = 0
KDR1 271300Z 23010KT 16/11 A2993 RMK A01 T01630108  RH  072%=      5-min Rain = 0
KDR1 271305Z 23011KT 17/11 A2993 RMK A01 T01680106  RH  069%=      5-min Rain = 0
KDR1 271310Z 23012KT 17/11 A2993 RMK A01 T01710105  RH  067%=      5-min Rain = 0
KDR1 271315Z 23011KT 17/11 A2993 RMK A01 T01710109  RH  069%=      5-min Rain = 0
KDR1 271320Z 23011KT 18/11 A2993 RMK A01 T01760106  RH  066%=      5-min Rain = 0
KDR1 271325Z 22012KT 18/10 A2993 RMK A01 T01800104  RH  063%=      5-min Rain = 0
KDR1 271330Z 23012KT 18/10 A2993 RMK A01 T01840100  RH  060%=      5-min Rain = 0
KDR1 271335Z 23011KT 19/10 A2993 RMK A01 T01870102  RH  059%=      5-min Rain = 0
KDR1 271340Z 23011KT 19/10 A2993 RMK A01 T01890102  RH  059%=      5-min Rain = 0
KDR1 271345Z 23011KT 19/10 A2993 RMK A01 T01920100  RH  057%=      5-min Rain = 0
KDR1 271350Z 23011KT 20/10 A2993 RMK A01 T01970097  RH  054%=      5-min Rain = 0
KDR1 271355Z 23011KT 20/09 A2993 RMK A01 T02010093  RH  051%=      5-min Rain = 0
KDR1 271400Z 23011KT 20/09 A2993 RMK A01 T02030092  RH  050%=      5-min Rain = 0
KDR1 271405Z 23011KT 21/09 A2993 RMK A01 T02060092  RH  049%=      5-min Rain = 0
KDR1 271410Z 23011KT 21/09 A2993 RMK A01 T02080092  RH  049%=      5-min Rain = 0
KDR1 271415Z 23011KT 21/09 A2993 RMK A01 T02110089  RH  047%=      5-min Rain = 0
KDR1 271420Z 24011KT 21/09 A2993 RMK A01 T02120089  RH  046%=      5-min Rain = 0
KDR1 271425Z 24010KT 21/10 A2993 RMK A01 T02140096  RH  048%=      5-min Rain = 0
KDR1 271430Z 24011KT 22/08 A2993 RMK A01 T02170084  RH  044%=      5-min Rain = 0
KDR1 271435Z 25013KT 22/08 A2993 RMK A01 T02190082  RH  043%=      5-min Rain = 0
KDR1 271440Z 25013G18KT 22/07 A2993 RMK A01 T02210072  RH  039%=      5-min Rain = 0
KDR1 271445Z 26011KT 22/08 A2993 RMK A01 T02220080  RH  041%=      5-min Rain = 0
KDR1 271450Z 25012G18KT 22/08 A2993 RMK A01 T02240084  RH  042%=      5-min Rain = 0
KDR1 271455Z 25012G17KT 23/08 A2993 RMK A01 T02250076  RH  040%=      5-min Rain = 0
KDR1 271500Z 25013KT 23/08 A2993 RMK A01 T02250076  RH  039%=      5-min Rain = 0
KDR1 271505Z 25013KT 23/07 A2993 RMK A01 T02260073  RH  038%=      5-min Rain = 0
KDR1 271510Z 25013KT 23/08 A2993 RMK A01 T02280079  RH  040%=      5-min Rain = 0
KDR1 271515Z 24012KT 23/08 A2993 RMK A01 T02300083  RH  040%=      5-min Rain = 0
KDR1 271520Z 24012G17KT 23/08 A2993 RMK A01 T02310082  RH  040%=      5-min Rain = 0
KDR1 271525Z 25011KT 23/09 A2993 RMK A01 T02330091  RH  042%=      5-min Rain = 0
KDR1 271530Z 24012KT 24/08 A2993 RMK A01 T02350084  RH  039%=      5-min Rain = 0
KDR1 271535Z 23011KT 24/08 A2993 RMK A01 T02350081  RH  038%=      5-min Rain = 0
KDR1 271540Z 24011KT 24/07 A2993 RMK A01 T02370072  RH  036%=      5-min Rain = 0
KDR1 271545Z 24010KT 24/08 A2993 RMK A01 T02400083  RH  038%=      5-min Rain = 0
KDR1 271550Z 23011KT 24/06 A2993 RMK A01 T02410063  RH  033%=      5-min Rain = 0
KDR1 271555Z 23010KT 24/07 A2993 RMK A01 T02430066  RH  033%=      5-min Rain = 0
KDR1 271600Z 23012G17KT 25/06 A2993 RMK A01 T02460059  RH  031%=      5-min Rain = 0
KDR1 271605Z 23013KT 25/05 A2993 RMK A01 T02460046  RH  028%=      5-min Rain = 0
KDR1 271610Z 21011G17KT 25/04 A2992 RMK A01 T02460037  RH  026%=      5-min Rain = 0
KDR1 271615Z 22010KT 25/05 A2992 RMK A01 T02480045  RH  028%=      5-min Rain = 0
KDR1 271620Z 21012G21KT 25/04 A2992 RMK A01 T02500036  RH  026%=      5-min Rain = 0
KDR1 271625Z 23019KT 25/04 A2992 RMK A01 T02490040  RH  026%=      5-min Rain = 0
KDR1 271630Z 22016G22KT 25/03 A2991 RMK A01 T02500030  RH  025%=      5-min Rain = 0
KDR1 271635Z 23020KT 25/04 A2991 RMK A01 T02500038  RH  026%=      5-min Rain = 0
KDR1 271640Z 22017KT 25/04 A2991 RMK A01 T02500036  RH  026%=      5-min Rain = 0
KDR1 271645Z 23017G24KT 25/04 A2991 RMK A01 T02520036  RH  025%=      5-min Rain = 0
KDR1 271650Z 22019G24KT 25/04 A2991 RMK A01 T02530038  RH  025%=      5-min Rain = 0
KDR1 271655Z 23017G24KT 25/04 A2991 RMK A01 T02530038  RH  026%=      5-min Rain = 0
KDR1 271700Z 23017G23KT 26/04 A2991 RMK A01 T02560040  RH  025%=      5-min Rain = 0
KDR1 271705Z 23021KT 26/04 A299 RMK A01 T02570040  RH  025%=      5-min Rain = 0
KDR1 271710Z 23022G28KT 26/03 A299 RMK A01 T02580031  RH  023%=      5-min Rain = 0
KDR1 271715Z 22022G29KT 26/02 A299 RMK A01 T02570016  RH  021%=      5-min Rain = 0
KDR1 271720Z 22020G30KT 26/02 A299 RMK A01 T02600023  RH  022%=      5-min Rain = 0
KDR1 271725Z 22022G29KT 26/02 A2989 RMK A01 T02600016  RH  021%=      5-min Rain = 0
KDR1 271730Z 21021G28KT 26/01 A299 RMK A01 T02610006  RH  019%=      5-min Rain = 0
KDR1 271735Z 22025G32KT 26/01 A2989 RMK A01 T02610006  RH  019%=      5-min Rain = 0
KDR1 271740Z 22021G26KT 26/01 A2989 RMK A01 T02610010  RH  020%=      5-min Rain = 0
KDR1 271745Z 21023G29KT 27/02 A2989 RMK A01 T02650015  RH  020%=      5-min Rain = 0
KDR1 271750Z 21020G27KT 27/01 A2989 RMK A01 T02660009  RH  019%=      5-min Rain = 0
KDR1 271755Z 21020G26KT 27/01 A2989 RMK A01 T02670011  RH  019%=      5-min Rain = 0
KDR1 271800Z 21022G28KT 27/01 A2988 RMK A01 T02710010  RH  019%=      5-min Rain = 0
KDR1 271805Z 21023G31KT 27/M00 A2988 RMK A01 T02691001  RH  017%=      5-min Rain = 0
KDR1 271810Z 21020G26KT 27/01 A2988 RMK A01 T02690007  RH  018%=      5-min Rain = 0
KDR1 271815Z 21024G30KT 27/M00 A2988 RMK A01 T02711002  RH  017%=      5-min Rain = 0
KDR1 271820Z 22022G34KT 27/M00 A2988 RMK A01 T02701003  RH  017%=      5-min Rain = 0
KDR1 271825Z 21019G25KT 28/01 A2988 RMK A01 T02750005  RH  018%=      5-min Rain = 0
KDR1 271830Z 21020KT 28/00 A2987 RMK A01 T02790004  RH  017%=      5-min Rain = 0
KDR1 271835Z 21024G33KT 28/M01 A2987 RMK A01 T02791005  RH  016%=      5-min Rain = 0
KDR1 271840Z 20022G30KT 28/M00 A2986 RMK A01 T02811003  RH  016%=      5-min Rain = 0
KDR1 271845Z 21026G34KT 28/M02 A2986 RMK A01 T02801017  RH  014%=      5-min Rain = 0
KDR1 271850Z 22026G32KT 28/M02 A2986 RMK A01 T02801024  RH  014%=      5-min Rain = 0
KDR1 271855Z 21025G35KT 28/M03 A2986 RMK A01 T02811027  RH  013%=      5-min Rain = 0
KDR1 271900Z 21027G33KT 28/M04 A2986 RMK A01 T02841042  RH  012%=      5-min Rain = 0
KDR1 271905Z 21026G36KT 28/M04 A2985 RMK A01 T02841041  RH  012%=      5-min Rain = 0
KDR1 271910Z 22026G35KT 29/M03 A2985 RMK A01 T02881031  RH  012%=      5-min Rain = 0
KDR1 271915Z 22026G32KT 28/M04 A2985 RMK A01 T02841044  RH  011%=      5-min Rain = 0
KDR1 271920Z 22026G33KT 29/M03 A2984 RMK A01 T02891033  RH  012%=      5-min Rain = 0
KDR1 271925Z 21024G31KT 29/M04 A2984 RMK A01 T02871039  RH  012%=      5-min Rain = 0
KDR1 271930Z 21025G31KT 29/M03 A2984 RMK A01 T02911033  RH  012%=      5-min Rain = 0
KDR1 271935Z 22027G37KT 29/M03 A2983 RMK A01 T02911033  RH  012%=      5-min Rain = 0
KDR1 271940Z 21022KT 29/M03 A2984 RMK A01 T02941026  RH  012%=      5-min Rain = 0
KDR1 271945Z 21024G31KT 30/M03 A2983 RMK A01 T02951025  RH  012%=      5-min Rain = 0
KDR1 271950Z 22027G34KT 29/M03 A2982 RMK A01 T02941033  RH  012%=      5-min Rain = 0
KDR1 271955Z 21025G31KT 30/M03 A2982 RMK A01 T02951034  RH  012%=      5-min Rain = 0
KDR1 272000Z 22026G33KT 30/M03 A2982 RMK A01 T02971029  RH  012%=      5-min Rain = 0
KDR1 272005Z 22025G35KT 30/M03 A2982 RMK A01 T02981034  RH  011%=      5-min Rain = 0
KDR1 272010Z 21031G37KT 30/M04 A2981 RMK A01 T02961043  RH  011%=      5-min Rain = 0
KDR1 272015Z 21025G33KT 29/M05 A2981 RMK A01 T02931046  RH  011%=      5-min Rain = 0
KDR1 272020Z 22026G34KT 30/M04 A2981 RMK A01 T02981037  RH  011%=      5-min Rain = 0
KDR1 272025Z 21024G31KT 30/M03 A2981 RMK A01 T03001033  RH  011%=      5-min Rain = 0
KDR1 272030Z 21025G33KT 30/M03 A2981 RMK A01 T03031028  RH  012%=      5-min Rain = 0
KDR1 272035Z 18023G28KT 31/M03 A2981 RMK A01 T03061026  RH  012%=      5-min Rain = 0
KDR1 272040Z 21023G31KT 31/M02 A2981 RMK A01 T03071022  RH  012%=      5-min Rain = 0
KDR1 272045Z 21027G37KT 30/M04 A298 RMK A01 T03031039  RH  011%=      5-min Rain = 0
KDR1 272050Z 21028G36KT 30/M04 A298 RMK A01 T03021043  RH  010%=      5-min Rain = 0
KDR1 272055Z 21025G34KT 30/M05 A298 RMK A01 T02991052  RH  010%=      5-min Rain = 0
KDR1 272100Z 21028G35KT 30/M05 A298 RMK A01 T03021048  RH  010%=      5-min Rain = 0
KDR1 272105Z 21026G32KT 30/M05 A298 RMK A01 T02991051  RH  010%=      5-min Rain = 0
KDR1 272110Z 21024G32KT 30/M05 A298 RMK A01 T03001046  RH  010%=      5-min Rain = 0
KDR1 272115Z 22024G35KT 30/M04 A2979 RMK A01 T03021040  RH  011%=      5-min Rain = 0
KDR1 272120Z 22029G36KT 30/M05 A2979 RMK A01 T03011053  RH  010%=      5-min Rain = 0
KDR1 272125Z 21026G33KT 30/M04 A2979 RMK A01 T03041038  RH  011%=      5-min Rain = 0
KDR1 272130Z 22024G31KT 30/M04 A2979 RMK A01 T03021043  RH  010%=      5-min Rain = 0
KDR1 272135Z 22029G35KT 30/M05 A2978 RMK A01 T03031047  RH  010%=      5-min Rain = 0
KDR1 272140Z 21025G32KT 30/M04 A2978 RMK A01 T03041040  RH  011%=      5-min Rain = 0
KDR1 272145Z 22025G30KT 30/M04 A2978 RMK A01 T03021043  RH  010%=      5-min Rain = 0
KDR1 272150Z 21026G33KT 30/M05 A2978 RMK A01 T03031045  RH  010%=      5-min Rain = 0
KDR1 272155Z 21027KT 30/M05 A2977 RMK A01 T03031047  RH  010%=      5-min Rain = 0
KDR1 272200Z 22026G32KT 30/M04 A2977 RMK A01 T03041043  RH  010%=      5-min Rain = 0
KDR1 272205Z 22027G37KT 30/M05 A2977 RMK A01 T03021047  RH  010%=      5-min Rain = 0
KDR1 272210Z 22027G35KT 30/M04 A2976 RMK A01 T03031044  RH  010%=      5-min Rain = 0
KDR1 272215Z 22027G34KT 30/M04 A2976 RMK A01 T03031044  RH  010%=      5-min Rain = 0
KDR1 272220Z 22021G28KT 30/M04 A2976 RMK A01 T03021044  RH  010%=      5-min Rain = 0
KDR1 272225Z 21024G32KT 30/M04 A2976 RMK A01 T03041041  RH  010%=      5-min Rain = 0
KDR1 272230Z 21025G32KT 31/M04 A2976 RMK A01 T03051044  RH  010%=      5-min Rain = 0
KDR1 272235Z 22025G35KT 30/M05 A2976 RMK A01 T03041046  RH  010%=      5-min Rain = 0
KDR1 272240Z 21029G34KT 30/M05 A2976 RMK A01 T03031048  RH  010%=      5-min Rain = 0
KDR1 272245Z 20024G32KT 31/M04 A2976 RMK A01 T03051044  RH  010%=      5-min Rain = 0
KDR1 272250Z 21026G33KT 31/M04 A2975 RMK A01 T03061044  RH  010%=      5-min Rain = 0
KDR1 272255Z 22026G31KT 30/M05 A2975 RMK A01 T03041046  RH  010%=      5-min Rain = 0
KDR1 272300Z 21024G29KT 30/M05 A2975 RMK A01 T03041045  RH  010%=      5-min Rain = 0
KDR1 272305Z 22024G31KT 30/M05 A2975 RMK A01 T03041047  RH  010%=      5-min Rain = 0
KDR1 272310Z 21022G30KT 30/M05 A2974 RMK A01 T03041048  RH  010%=      5-min Rain = 0
KDR1 272315Z 20026G33KT 31/M05 A2974 RMK A01 T03051050  RH  010%=      5-min Rain = 0
KDR1 272320Z 20025G36KT 31/M05 A2975 RMK A01 T03051049  RH  010%=      5-min Rain = 0
KDR1 272325Z 20027G33KT 30/M05 A2974 RMK A01 T03041050  RH  010%=      5-min Rain = 0
KDR1 272330Z 22023G31KT 30/M05 A2974 RMK A01 T03031046  RH  010%=      5-min Rain = 0
KDR1 272335Z 21023G30KT 30/M05 A2974 RMK A01 T03021049  RH  010%=      5-min Rain = 0
KDR1 272340Z 20024G29KT 30/M05 A2974 RMK A01 T03031045  RH  010%=      5-min Rain = 0
KDR1 272345Z 20025G33KT 30/M05 A2974 RMK A01 T03031047  RH  010%=      5-min Rain = 0
KDR1 272350Z 21025G31KT 30/M05 A2973 RMK A01 T03021045  RH  010%=      5-min Rain = 0
KDR1 272355Z 21023G29KT 30/M05 A2973 RMK A01 T03011045  RH  010%=      5-min Rain = 0
KDR1 280000Z 21021G26KT 30/M04 A2973 RMK A01 T03011042  RH  011%=      5-min Rain = 0
KDR1 280005Z 22025G31KT 30/M04 A2973 RMK A01 T03001042  RH  011%=      5-min Rain = 0
KDR1 280010Z 21024G29KT 30/M04 A2973 RMK A01 T02991041  RH  011%=      5-min Rain = 0
KDR1 280015Z 21023KT 30/M04 A2973 RMK A01 T02971041  RH  011%=      5-min Rain = 0
KDR1 280020Z 20020G28KT 30/M04 A2973 RMK A01 T02971035  RH  011%=      5-min Rain = 0
KDR1 280025Z 22022G28KT 30/M04 A2973 RMK A01 T02961039  RH  011%=      5-min Rain = 0
KDR1 280030Z 21024G29KT 30/M04 A2972 RMK A01 T02951037  RH  011%=      5-min Rain = 0
KDR1 280035Z 22021G29KT 29/M04 A2972 RMK A01 T02931037  RH  011%=      5-min Rain = 0
KDR1 280040Z 22026G33KT 29/M04 A2972 RMK A01 T02921042  RH  011%=      5-min Rain = 0
KDR1 280045Z 22023G29KT 29/M04 A2972 RMK A01 T02901040  RH  011%=      5-min Rain = 0
KDR1 280050Z 22023G30KT 29/M04 A2972 RMK A01 T02891039  RH  012%=      5-min Rain = 0
KDR1 280055Z 22022G28KT 29/M04 A2972 RMK A01 T02871037  RH  012%=      5-min Rain = 0
KDR1 280100Z 22020KT 29/M03 A2973 RMK A01 T02851032  RH  012%=      5-min Rain = 0
KDR1 280105Z 22017KT 28/M03 A2973 RMK A01 T02821026  RH  013%=      5-min Rain = 0
KDR1 280110Z 22017KT 28/M03 A2973 RMK A01 T02801025  RH  014%=      5-min Rain = 0
KDR1 280115Z 22017KT 28/M03 A2973 RMK A01 T02781025  RH  014%=      5-min Rain = 0
KDR1 280120Z 22016KT 28/M02 A2973 RMK A01 T02751022  RH  014%=      5-min Rain = 0
KDR1 280125Z 22015G20KT 27/M02 A2973 RMK A01 T02731020  RH  015%=      5-min Rain = 0
KDR1 280130Z 22015KT 27/M02 A2973 RMK A01 T02701018  RH  015%=      5-min Rain = 0
KDR1 280135Z 22014KT 27/M01 A2973 RMK A01 T02661014  RH  016%=      5-min Rain = 0
KDR1 280140Z 22013KT 26/M01 A2973 RMK A01 T02601007  RH  017%=      5-min Rain = 0
KDR1 280145Z 22013KT 26/M01 A2973 RMK A01 T02561005  RH  018%=      5-min Rain = 0
KDR1 280150Z 22013KT 25/M00 A2973 RMK A01 T02531003  RH  019%=      5-min Rain = 0
KDR1 280155Z 21013KT 25/M00 A2973 RMK A01 T02491001  RH  020%=      5-min Rain = 0
KDR1 280200Z 22013KT 25/00 A2973 RMK A01 T02460001  RH  020%=      5-min Rain = 0
KDR1 280205Z 22014KT 25/M00 A2973 RMK A01 T02461002  RH  020%=      5-min Rain = 0
KDR1 280210Z 21013KT 24/M00 A2973 RMK A01 T02441001  RH  020%=      5-min Rain = 0
KDR1 280215Z 21013KT 24/00 A2974 RMK A01 T024200-0  RH  020%=      5-min Rain = 0
KDR1 280220Z 21012KT 24/01 A2974 RMK A01 T02360005  RH  022%=      5-min Rain = 0
KDR1 280225Z 21012KT 24/00 A2974 RMK A01 T02350003  RH  022%=      5-min Rain = 0
KDR1 280230Z 21013KT 23/00 A2974 RMK A01 T02330003  RH  022%=      5-min Rain = 0
KDR1 280235Z 21013KT 23/00 A2973 RMK A01 T02320003  RH  022%=      5-min Rain = 0
KDR1 280240Z 21013KT 23/01 A2973 RMK A01 T02290005  RH  023%=      5-min Rain = 0
KDR1 280245Z 21012KT 23/01 A2973 RMK A01 T02260007  RH  024%=      5-min Rain = 0
KDR1 280250Z 21011KT 22/01 A2973 RMK A01 T02210011  RH  025%=      5-min Rain = 0
KDR1 280255Z 21012KT 22/01 A2974 RMK A01 T02200009  RH  025%=      5-min Rain = 0
KDR1 280300Z 21011KT 22/02 A2974 RMK A01 T02150015  RH  027%=      5-min Rain = 0
KDR1 280305Z 21012KT 22/01 A2974 RMK A01 T02150012  RH  026%=      5-min Rain = 0
KDR1 280310Z 21012KT 22/01 A2974 RMK A01 T02170009  RH  025%=      5-min Rain = 0
KDR1 280315Z 21010KT 22/01 A2974 RMK A01 T02150011  RH  026%=      5-min Rain = 0
KDR1 280320Z 21010KT 21/01 A2974 RMK A01 T02120012  RH  027%=      5-min Rain = 0
KDR1 280325Z 21010KT 21/01 A2974 RMK A01 T02100012  RH  027%=      5-min Rain = 0
KDR1 280330Z 22010KT 21/02 A2975 RMK A01 T02070016  RH  029%=      5-min Rain = 0
KDR1 280335Z 22011KT 21/01 A2975 RMK A01 T02060014  RH  028%=      5-min Rain = 0
KDR1 280340Z 22010KT 20/02 A2975 RMK A01 T02030015  RH  029%=      5-min Rain = 0
KDR1 280345Z 22011G16KT 21/01 A2975 RMK A01 T02070008  RH  027%=      5-min Rain = 0
KDR1 280350Z 22011KT 21/00 A2975 RMK A01 T02080003  RH  026%=      5-min Rain = 0
KDR1 280355Z 23011KT 21/M00 A2975 RMK A01 T02101001  RH  025%=      5-min Rain = 0
KDR1 280400Z 23011KT 21/M00 A2976 RMK A01 T02081002  RH  025%=      5-min Rain = 0
KDR1 280405Z 23010KT 21/M00 A2976 RMK A01 T02061002  RH  025%=      5-min Rain = 0
KDR1 280410Z 22012KT 21/M01 A2976 RMK A01 T02091012  RH  023%=      5-min Rain = 0
KDR1 280415Z 21009G14KT 21/M00 A2976 RMK A01 T02051002  RH  025%=      5-min Rain = 0
KDR1 280420Z 14011G16KT 18/01 A2977 RMK A01 T01840011  RH  032%=      5-min Rain = 0
KDR1 280425Z 15013KT 18/M01 A2977 RMK A01 T01831006  RH  028%=      5-min Rain = 0
KDR1 280430Z 17013KT 21/M03 A2978 RMK A01 T02071030  RH  020%=      5-min Rain = 0
KDR1 280435Z 17013KT 21/M03 A2978 RMK A01 T02071031  RH  020%=      5-min Rain = 0
KDR1 280440Z 17015G21KT 21/M04 A2978 RMK A01 T02081038  RH  019%=      5-min Rain = 0
KDR1 280445Z 18014KT 22/M05 A2979 RMK A01 T02151046  RH  017%=      5-min Rain = 0
KDR1 280450Z 18013G20KT 21/M05 A2979 RMK A01 T02141047  RH  017%=      5-min Rain = 0
KDR1 280455Z 19013KT 21/M04 A2979 RMK A01 T02071040  RH  019%=      5-min Rain = 0

Page generated in 0.0331 seconds.